sensor_id;sensor_type;location;lat;lon;timestamp;P1;durP1;ratioP1;P2;durP2;ratioP2
24163;SDS011;12319;49.204;8.116;2022-10-31T00:02:21;4.20;;;1.73;;
24163;SDS011;12319;49.204;8.116;2022-10-31T00:04:47;3.25;;;1.70;;
24163;SDS011;12319;49.204;8.116;2022-10-31T00:07:12;2.25;;;1.10;;
24163;SDS011;12319;49.204;8.116;2022-10-31T00:09:38;2.28;;;1.60;;
24163;SDS011;12319;49.204;8.116;2022-10-31T00:12:03;2.38;;;1.30;;
24163;SDS011;12319;49.204;8.116;2022-10-31T00:14:29;2.80;;;1.52;;
24163;SDS011;12319;49.204;8.116;2022-10-31T00:16:55;2.40;;;1.58;;
24163;SDS011;12319;49.204;8.116;2022-10-31T00:19:20;3.28;;;1.50;;
24163;SDS011;12319;49.204;8.116;2022-10-31T00:21:46;2.55;;;1.50;;
24163;SDS011;12319;49.204;8.116;2022-10-31T00:24:11;3.47;;;1.83;;
24163;SDS011;12319;49.204;8.116;2022-10-31T00:26:37;2.08;;;1.33;;
24163;SDS011;12319;49.204;8.116;2022-10-31T00:29:02;2.65;;;1.70;;
24163;SDS011;12319;49.204;8.116;2022-10-31T00:31:28;1.80;;;1.30;;
24163;SDS011;12319;49.204;8.116;2022-10-31T00:33:54;3.25;;;1.27;;
24163;SDS011;12319;49.204;8.116;2022-10-31T00:36:20;2.10;;;1.48;;
24163;SDS011;12319;49.204;8.116;2022-10-31T00:38:46;4.43;;;1.42;;
24163;SDS011;12319;49.204;8.116;2022-10-31T00:41:14;2.25;;;1.75;;
24163;SDS011;12319;49.204;8.116;2022-10-31T00:43:41;2.67;;;1.27;;
24163;SDS011;12319;49.204;8.116;2022-10-31T00:46:07;3.22;;;1.48;;
24163;SDS011;12319;49.204;8.116;2022-10-31T00:48:33;4.28;;;1.60;;
24163;SDS011;12319;49.204;8.116;2022-10-31T00:50:59;2.00;;;1.55;;
24163;SDS011;12319;49.204;8.116;2022-10-31T00:53:24;1.70;;;1.30;;
24163;SDS011;12319;49.204;8.116;2022-10-31T00:55:50;3.00;;;1.48;;
24163;SDS011;12319;49.204;8.116;2022-10-31T00:58:16;3.38;;;1.52;;
24163;SDS011;12319;49.204;8.116;2022-10-31T01:00:41;4.43;;;1.60;;
24163;SDS011;12319;49.204;8.116;2022-10-31T01:03:07;2.58;;;1.50;;
24163;SDS011;12319;49.204;8.116;2022-10-31T01:05:33;3.22;;;1.70;;
24163;SDS011;12319;49.204;8.116;2022-10-31T01:07:58;2.25;;;1.20;;
24163;SDS011;12319;49.204;8.116;2022-10-31T01:10:24;2.75;;;1.75;;
24163;SDS011;12319;49.204;8.116;2022-10-31T01:12:49;1.90;;;1.42;;
24163;SDS011;12319;49.204;8.116;2022-10-31T01:15:17;2.10;;;1.40;;
24163;SDS011;12319;49.204;8.116;2022-10-31T01:17:44;3.08;;;1.83;;
24163;SDS011;12319;49.204;8.116;2022-10-31T01:20:11;4.35;;;1.67;;
24163;SDS011;12319;49.204;8.116;2022-10-31T01:22:37;1.88;;;1.50;;
24163;SDS011;12319;49.204;8.116;2022-10-31T01:25:03;1.98;;;1.73;;
24163;SDS011;12319;49.204;8.116;2022-10-31T01:27:30;2.92;;;1.50;;
24163;SDS011;12319;49.204;8.116;2022-10-31T01:29:56;2.10;;;1.40;;
24163;SDS011;12319;49.204;8.116;2022-10-31T01:32:21;1.55;;;1.20;;
24163;SDS011;12319;49.204;8.116;2022-10-31T01:34:47;2.38;;;1.45;;
24163;SDS011;12319;49.204;8.116;2022-10-31T01:37:13;1.88;;;1.30;;
24163;SDS011;12319;49.204;8.116;2022-10-31T01:39:38;5.63;;;1.30;;
24163;SDS011;12319;49.204;8.116;2022-10-31T01:42:04;1.58;;;1.38;;
24163;SDS011;12319;49.204;8.116;2022-10-31T01:46:59;3.00;;;1.58;;
24163;SDS011;12319;49.204;8.116;2022-10-31T01:49:46;1.98;;;1.05;;
24163;SDS011;12319;49.204;8.116;2022-10-31T01:54:51;2.35;;;1.60;;
24163;SDS011;12319;49.204;8.116;2022-10-31T01:57:21;2.03;;;1.30;;
24163;SDS011;12319;49.204;8.116;2022-10-31T01:59:48;3.10;;;1.27;;
24163;SDS011;12319;49.204;8.116;2022-10-31T02:02:17;2.40;;;1.55;;
24163;SDS011;12319;49.204;8.116;2022-10-31T02:04:44;1.63;;;1.30;;
24163;SDS011;12319;49.204;8.116;2022-10-31T02:07:35;2.55;;;1.60;;
24163;SDS011;12319;49.204;8.116;2022-10-31T02:10:07;2.60;;;1.50;;
24163;SDS011;12319;49.204;8.116;2022-10-31T02:12:32;1.38;;;1.27;;
24163;SDS011;12319;49.204;8.116;2022-10-31T02:15:01;2.47;;;1.10;;
24163;SDS011;12319;49.204;8.116;2022-10-31T02:17:28;2.42;;;1.10;;
24163;SDS011;12319;49.204;8.116;2022-10-31T02:22:50;2.53;;;1.30;;
24163;SDS011;12319;49.204;8.116;2022-10-31T02:34:44;2.13;;;1.33;;
24163;SDS011;12319;49.204;8.116;2022-10-31T02:37:06;3.03;;;1.38;;
24163;SDS011;12319;49.204;8.116;2022-10-31T02:39:49;2.45;;;1.27;;
24163;SDS011;12319;49.204;8.116;2022-10-31T02:42:32;2.35;;;1.40;;
24163;SDS011;12319;49.204;8.116;2022-10-31T02:45:13;2.20;;;1.55;;
24163;SDS011;12319;49.204;8.116;2022-10-31T02:47:46;2.40;;;1.27;;
24163;SDS011;12319;49.204;8.116;2022-10-31T02:52:43;2.38;;;1.50;;
24163;SDS011;12319;49.204;8.116;2022-10-31T02:55:39;3.85;;;1.08;;
24163;SDS011;12319;49.204;8.116;2022-10-31T02:58:11;3.47;;;1.50;;
24163;SDS011;12319;49.204;8.116;2022-10-31T03:00:42;2.38;;;1.33;;
24163;SDS011;12319;49.204;8.116;2022-10-31T03:03:29;2.25;;;1.27;;
24163;SDS011;12319;49.204;8.116;2022-10-31T03:06:17;2.17;;;1.30;;
24163;SDS011;12319;49.204;8.116;2022-10-31T03:08:50;1.58;;;1.30;;
24163;SDS011;12319;49.204;8.116;2022-10-31T03:11:28;1.58;;;1.27;;
24163;SDS011;12319;49.204;8.116;2022-10-31T03:14:00;1.38;;;1.23;;
24163;SDS011;12319;49.204;8.116;2022-10-31T03:16:47;2.45;;;1.42;;
24163;SDS011;12319;49.204;8.116;2022-10-31T03:19:17;2.28;;;1.30;;
24163;SDS011;12319;49.204;8.116;2022-10-31T03:21:57;4.68;;;1.25;;
24163;SDS011;12319;49.204;8.116;2022-10-31T03:24:36;1.60;;;1.20;;
24163;SDS011;12319;49.204;8.116;2022-10-31T03:27:03;2.10;;;1.23;;
24163;SDS011;12319;49.204;8.116;2022-10-31T03:29:33;3.00;;;1.60;;
24163;SDS011;12319;49.204;8.116;2022-10-31T03:32:03;2.13;;;1.45;;
24163;SDS011;12319;49.204;8.116;2022-10-31T03:34:34;3.08;;;1.42;;
24163;SDS011;12319;49.204;8.116;2022-10-31T03:37:03;2.80;;;1.42;;
24163;SDS011;12319;49.204;8.116;2022-10-31T03:39:32;1.88;;;1.50;;
24163;SDS011;12319;49.204;8.116;2022-10-31T03:42:03;2.13;;;1.30;;
24163;SDS011;12319;49.204;8.116;2022-10-31T03:44:33;2.65;;;1.42;;
24163;SDS011;12319;49.204;8.116;2022-10-31T03:47:00;2.42;;;1.35;;
24163;SDS011;12319;49.204;8.116;2022-10-31T03:49:28;2.58;;;1.10;;
24163;SDS011;12319;49.204;8.116;2022-10-31T03:51:56;3.22;;;1.35;;
24163;SDS011;12319;49.204;8.116;2022-10-31T03:54:29;2.80;;;1.40;;
24163;SDS011;12319;49.204;8.116;2022-10-31T04:02:31;1.73;;;1.40;;
24163;SDS011;12319;49.204;8.116;2022-10-31T04:04:59;1.95;;;1.50;;
24163;SDS011;12319;49.204;8.116;2022-10-31T04:07:27;2.35;;;1.35;;
24163;SDS011;12319;49.204;8.116;2022-10-31T04:09:55;4.15;;;1.60;;
24163;SDS011;12319;49.204;8.116;2022-10-31T04:12:22;4.32;;;1.60;;
24163;SDS011;12319;49.204;8.116;2022-10-31T04:14:50;3.42;;;1.98;;
24163;SDS011;12319;49.204;8.116;2022-10-31T04:17:18;2.00;;;1.40;;
24163;SDS011;12319;49.204;8.116;2022-10-31T04:19:46;1.48;;;1.38;;
24163;SDS011;12319;49.204;8.116;2022-10-31T04:22:11;4.22;;;1.73;;
24163;SDS011;12319;49.204;8.116;2022-10-31T04:24:38;4.25;;;1.83;;
24163;SDS011;12319;49.204;8.116;2022-10-31T04:27:05;3.22;;;1.67;;
24163;SDS011;12319;49.204;8.116;2022-10-31T04:29:31;2.95;;;1.48;;
24163;SDS011;12319;49.204;8.116;2022-10-31T04:31:56;2.65;;;1.70;;
24163;SDS011;12319;49.204;8.116;2022-10-31T04:34:22;1.95;;;1.50;;
24163;SDS011;12319;49.204;8.116;2022-10-31T04:36:47;2.65;;;1.60;;
24163;SDS011;12319;49.204;8.116;2022-10-31T04:39:13;2.72;;;1.60;;
24163;SDS011;12319;49.204;8.116;2022-10-31T04:41:38;2.03;;;1.42;;
24163;SDS011;12319;49.204;8.116;2022-10-31T04:44:04;1.95;;;1.60;;
24163;SDS011;12319;49.204;8.116;2022-10-31T04:46:30;2.30;;;1.52;;
24163;SDS011;12319;49.204;8.116;2022-10-31T04:48:56;2.13;;;1.70;;
24163;SDS011;12319;49.204;8.116;2022-10-31T04:51:22;4.57;;;1.70;;
24163;SDS011;12319;49.204;8.116;2022-10-31T04:53:47;1.70;;;1.60;;
24163;SDS011;12319;49.204;8.116;2022-10-31T04:56:13;2.50;;;1.88;;
24163;SDS011;12319;49.204;8.116;2022-10-31T04:58:39;1.70;;;1.50;;
24163;SDS011;12319;49.204;8.116;2022-10-31T05:01:04;2.13;;;1.60;;
24163;SDS011;12319;49.204;8.116;2022-10-31T05:03:30;2.05;;;1.40;;
24163;SDS011;12319;49.204;8.116;2022-10-31T05:05:56;1.58;;;1.35;;
24163;SDS011;12319;49.204;8.116;2022-10-31T05:08:21;1.77;;;1.65;;
24163;SDS011;12319;49.204;8.116;2022-10-31T05:10:47;3.50;;;1.40;;
24163;SDS011;12319;49.204;8.116;2022-10-31T05:13:12;3.35;;;1.60;;
24163;SDS011;12319;49.204;8.116;2022-10-31T05:15:39;2.65;;;1.70;;
24163;SDS011;12319;49.204;8.116;2022-10-31T05:18:05;3.55;;;1.77;;
24163;SDS011;12319;49.204;8.116;2022-10-31T05:20:31;2.67;;;1.70;;
24163;SDS011;12319;49.204;8.116;2022-10-31T05:22:57;3.42;;;1.60;;
24163;SDS011;12319;49.204;8.116;2022-10-31T05:25:24;2.47;;;1.70;;
24163;SDS011;12319;49.204;8.116;2022-10-31T05:27:51;1.85;;;1.65;;
24163;SDS011;12319;49.204;8.116;2022-10-31T05:30:19;2.13;;;1.65;;
24163;SDS011;12319;49.204;8.116;2022-10-31T05:32:47;2.42;;;1.58;;
24163;SDS011;12319;49.204;8.116;2022-10-31T05:35:18;3.95;;;1.90;;
24163;SDS011;12319;49.204;8.116;2022-10-31T05:37:47;2.60;;;1.52;;
24163;SDS011;12319;49.204;8.116;2022-10-31T05:40:13;3.95;;;1.83;;
24163;SDS011;12319;49.204;8.116;2022-10-31T05:42:40;2.13;;;1.75;;
24163;SDS011;12319;49.204;8.116;2022-10-31T05:45:10;3.58;;;1.70;;
24163;SDS011;12319;49.204;8.116;2022-10-31T05:47:37;2.92;;;1.73;;
24163;SDS011;12319;49.204;8.116;2022-10-31T05:50:03;2.17;;;1.73;;
24163;SDS011;12319;49.204;8.116;2022-10-31T05:52:30;4.57;;;1.88;;
24163;SDS011;12319;49.204;8.116;2022-10-31T05:54:56;2.90;;;2.13;;
24163;SDS011;12319;49.204;8.116;2022-10-31T05:57:21;3.25;;;1.92;;
24163;SDS011;12319;49.204;8.116;2022-10-31T05:59:47;2.63;;;1.75;;
24163;SDS011;12319;49.204;8.116;2022-10-31T06:02:12;2.95;;;2.00;;
24163;SDS011;12319;49.204;8.116;2022-10-31T06:04:38;3.30;;;2.08;;
24163;SDS011;12319;49.204;8.116;2022-10-31T06:07:03;2.20;;;1.80;;
24163;SDS011;12319;49.204;8.116;2022-10-31T06:09:29;3.78;;;2.20;;
24163;SDS011;12319;49.204;8.116;2022-10-31T06:11:55;3.58;;;2.03;;
24163;SDS011;12319;49.204;8.116;2022-10-31T06:14:20;3.17;;;2.10;;
24163;SDS011;12319;49.204;8.116;2022-10-31T06:16:46;3.13;;;1.90;;
24163;SDS011;12319;49.204;8.116;2022-10-31T06:19:11;4.05;;;1.90;;
24163;SDS011;12319;49.204;8.116;2022-10-31T06:21:37;2.33;;;1.90;;
24163;SDS011;12319;49.204;8.116;2022-10-31T06:24:02;2.13;;;1.67;;
24163;SDS011;12319;49.204;8.116;2022-10-31T06:26:28;3.03;;;1.88;;
24163;SDS011;12319;49.204;8.116;2022-10-31T06:28:54;4.10;;;1.85;;
24163;SDS011;12319;49.204;8.116;2022-10-31T06:31:19;3.33;;;1.83;;
24163;SDS011;12319;49.204;8.116;2022-10-31T06:33:45;4.40;;;2.08;;
24163;SDS011;12319;49.204;8.116;2022-10-31T06:36:10;2.67;;;1.95;;
24163;SDS011;12319;49.204;8.116;2022-10-31T06:38:36;4.05;;;2.33;;
24163;SDS011;12319;49.204;8.116;2022-10-31T06:41:02;3.13;;;2.03;;
24163;SDS011;12319;49.204;8.116;2022-10-31T06:43:29;2.70;;;1.92;;
24163;SDS011;12319;49.204;8.116;2022-10-31T06:45:55;2.60;;;2.20;;
24163;SDS011;12319;49.204;8.116;2022-10-31T06:48:20;3.33;;;2.10;;
24163;SDS011;12319;49.204;8.116;2022-10-31T06:50:46;3.40;;;2.20;;
24163;SDS011;12319;49.204;8.116;2022-10-31T06:53:11;3.78;;;2.20;;
24163;SDS011;12319;49.204;8.116;2022-10-31T06:55:39;4.95;;;2.30;;
24163;SDS011;12319;49.204;8.116;2022-10-31T06:58:05;3.15;;;2.25;;
24163;SDS011;12319;49.204;8.116;2022-10-31T07:00:31;2.88;;;2.45;;
24163;SDS011;12319;49.204;8.116;2022-10-31T07:02:58;3.47;;;2.80;;
24163;SDS011;12319;49.204;8.116;2022-10-31T07:05:25;3.00;;;2.40;;
24163;SDS011;12319;49.204;8.116;2022-10-31T07:07:56;3.30;;;2.80;;
24163;SDS011;12319;49.204;8.116;2022-10-31T07:10:23;4.82;;;2.72;;
24163;SDS011;12319;49.204;8.116;2022-10-31T07:12:54;4.82;;;2.70;;
24163;SDS011;12319;49.204;8.116;2022-10-31T07:15:21;3.20;;;2.40;;
24163;SDS011;12319;49.204;8.116;2022-10-31T07:17:47;4.28;;;2.65;;
24163;SDS011;12319;49.204;8.116;2022-10-31T07:20:12;4.22;;;2.88;;
24163;SDS011;12319;49.204;8.116;2022-10-31T07:22:38;3.05;;;2.40;;
24163;SDS011;12319;49.204;8.116;2022-10-31T07:25:04;2.92;;;2.30;;
24163;SDS011;12319;49.204;8.116;2022-10-31T07:27:34;4.18;;;2.55;;
24163;SDS011;12319;49.204;8.116;2022-10-31T07:30:07;4.18;;;2.55;;
24163;SDS011;12319;49.204;8.116;2022-10-31T07:32:38;2.97;;;2.28;;
24163;SDS011;12319;49.204;8.116;2022-10-31T07:35:04;3.28;;;2.40;;
24163;SDS011;12319;49.204;8.116;2022-10-31T07:37:31;5.00;;;2.78;;
24163;SDS011;12319;49.204;8.116;2022-10-31T07:39:56;2.50;;;2.30;;
24163;SDS011;12319;49.204;8.116;2022-10-31T07:42:22;3.42;;;2.65;;
24163;SDS011;12319;49.204;8.116;2022-10-31T07:44:47;2.45;;;2.25;;
24163;SDS011;12319;49.204;8.116;2022-10-31T07:47:13;4.72;;;2.55;;
24163;SDS011;12319;49.204;8.116;2022-10-31T07:49:39;3.00;;;2.53;;
24163;SDS011;12319;49.204;8.116;2022-10-31T07:52:04;2.53;;;2.20;;
24163;SDS011;12319;49.204;8.116;2022-10-31T07:54:30;4.75;;;2.65;;
24163;SDS011;12319;49.204;8.116;2022-10-31T07:56:55;3.25;;;2.28;;
24163;SDS011;12319;49.204;8.116;2022-10-31T07:59:21;3.45;;;2.67;;
24163;SDS011;12319;49.204;8.116;2022-10-31T08:01:46;2.58;;;2.15;;
24163;SDS011;12319;49.204;8.116;2022-10-31T08:04:12;4.75;;;2.50;;
24163;SDS011;12319;49.204;8.116;2022-10-31T08:06:37;4.05;;;2.45;;
24163;SDS011;12319;49.204;8.116;2022-10-31T08:09:03;3.15;;;2.25;;
24163;SDS011;12319;49.204;8.116;2022-10-31T08:11:29;3.42;;;2.15;;
24163;SDS011;12319;49.204;8.116;2022-10-31T08:13:54;2.85;;;2.42;;
24163;SDS011;12319;49.204;8.116;2022-10-31T08:16:20;2.83;;;2.42;;
24163;SDS011;12319;49.204;8.116;2022-10-31T08:18:45;2.65;;;2.25;;
24163;SDS011;12319;49.204;8.116;2022-10-31T08:21:12;2.45;;;1.98;;
24163;SDS011;12319;49.204;8.116;2022-10-31T08:23:38;3.03;;;1.98;;
24163;SDS011;12319;49.204;8.116;2022-10-31T08:26:03;2.25;;;2.00;;
24163;SDS011;12319;49.204;8.116;2022-10-31T08:28:31;2.03;;;1.83;;
24163;SDS011;12319;49.204;8.116;2022-10-31T08:30:57;2.22;;;1.90;;
24163;SDS011;12319;49.204;8.116;2022-10-31T08:33:23;3.25;;;2.60;;
24163;SDS011;12319;49.204;8.116;2022-10-31T08:35:49;3.05;;;2.42;;
24163;SDS011;12319;49.204;8.116;2022-10-31T08:38:15;3.70;;;2.00;;
24163;SDS011;12319;49.204;8.116;2022-10-31T08:40:41;4.30;;;1.92;;
24163;SDS011;12319;49.204;8.116;2022-10-31T08:43:13;5.20;;;2.03;;
24163;SDS011;12319;49.204;8.116;2022-10-31T08:45:41;4.22;;;1.95;;
24163;SDS011;12319;49.204;8.116;2022-10-31T08:48:11;2.92;;;1.85;;
24163;SDS011;12319;49.204;8.116;2022-10-31T08:50:38;2.38;;;1.77;;
24163;SDS011;12319;49.204;8.116;2022-10-31T08:53:07;2.33;;;2.13;;
24163;SDS011;12319;49.204;8.116;2022-10-31T08:55:38;2.75;;;1.77;;
24163;SDS011;12319;49.204;8.116;2022-10-31T08:58:05;2.47;;;2.20;;
24163;SDS011;12319;49.204;8.116;2022-10-31T09:00:32;4.35;;;2.20;;
24163;SDS011;12319;49.204;8.116;2022-10-31T09:02:59;3.25;;;2.15;;
24163;SDS011;12319;49.204;8.116;2022-10-31T09:05:26;2.90;;;1.70;;
24163;SDS011;12319;49.204;8.116;2022-10-31T09:07:55;2.15;;;1.83;;
24163;SDS011;12319;49.204;8.116;2022-10-31T09:10:22;4.22;;;2.50;;
24163;SDS011;12319;49.204;8.116;2022-10-31T09:12:55;3.28;;;1.80;;
24163;SDS011;12319;49.204;8.116;2022-10-31T09:15:22;3.85;;;1.92;;
24163;SDS011;12319;49.204;8.116;2022-10-31T09:17:48;2.22;;;1.85;;
24163;SDS011;12319;49.204;8.116;2022-10-31T09:20:14;2.88;;;2.15;;
24163;SDS011;12319;49.204;8.116;2022-10-31T09:22:40;3.75;;;2.13;;
24163;SDS011;12319;49.204;8.116;2022-10-31T09:25:06;3.03;;;2.22;;
24163;SDS011;12319;49.204;8.116;2022-10-31T09:27:32;4.88;;;2.67;;
24163;SDS011;12319;49.204;8.116;2022-10-31T09:29:57;2.80;;;2.35;;
24163;SDS011;12319;49.204;8.116;2022-10-31T09:32:23;2.95;;;2.15;;
24163;SDS011;12319;49.204;8.116;2022-10-31T09:34:48;2.95;;;2.45;;
24163;SDS011;12319;49.204;8.116;2022-10-31T09:37:14;2.28;;;1.95;;
24163;SDS011;12319;49.204;8.116;2022-10-31T09:39:39;2.85;;;2.13;;
24163;SDS011;12319;49.204;8.116;2022-10-31T09:42:26;4.15;;;2.35;;
24163;SDS011;12319;49.204;8.116;2022-10-31T09:45:26;6.55;;;2.20;;
24163;SDS011;12319;49.204;8.116;2022-10-31T09:51:15;2.28;;;1.90;;
24163;SDS011;12319;49.204;8.116;2022-10-31T09:53:48;2.92;;;2.35;;
24163;SDS011;12319;49.204;8.116;2022-10-31T09:56:19;2.58;;;2.00;;
24163;SDS011;12319;49.204;8.116;2022-10-31T09:58:47;2.83;;;2.25;;
24163;SDS011;12319;49.204;8.116;2022-10-31T10:01:25;2.90;;;2.30;;
24163;SDS011;12319;49.204;8.116;2022-10-31T10:06:44;3.03;;;2.55;;
24163;SDS011;12319;49.204;8.116;2022-10-31T10:09:12;3.00;;;2.10;;
24163;SDS011;12319;49.204;8.116;2022-10-31T10:22:57;3.15;;;2.28;;
24163;SDS011;12319;49.204;8.116;2022-10-31T10:25:49;2.45;;;2.22;;
24163;SDS011;12319;49.204;8.116;2022-10-31T10:28:32;4.30;;;2.78;;
24163;SDS011;12319;49.204;8.116;2022-10-31T10:31:16;3.67;;;2.67;;
24163;SDS011;12319;49.204;8.116;2022-10-31T10:33:50;3.92;;;2.60;;
24163;SDS011;12319;49.204;8.116;2022-10-31T10:39:16;3.95;;;2.60;;
24163;SDS011;12319;49.204;8.116;2022-10-31T10:41:49;4.00;;;2.50;;
24163;SDS011;12319;49.204;8.116;2022-10-31T10:44:38;5.50;;;2.30;;
24163;SDS011;12319;49.204;8.116;2022-10-31T10:47:27;3.42;;;2.58;;
24163;SDS011;12319;49.204;8.116;2022-10-31T10:50:10;2.95;;;2.53;;
24163;SDS011;12319;49.204;8.116;2022-10-31T10:52:55;3.58;;;2.50;;
24163;SDS011;12319;49.204;8.116;2022-10-31T10:58:15;4.22;;;2.78;;
24163;SDS011;12319;49.204;8.116;2022-10-31T11:00:42;4.75;;;2.97;;
24163;SDS011;12319;49.204;8.116;2022-10-31T11:03:08;2.97;;;2.25;;
24163;SDS011;12319;49.204;8.116;2022-10-31T11:05:36;3.80;;;2.72;;
24163;SDS011;12319;49.204;8.116;2022-10-31T11:08:02;3.92;;;3.30;;
24163;SDS011;12319;49.204;8.116;2022-10-31T11:10:29;5.05;;;2.88;;
24163;SDS011;12319;49.204;8.116;2022-10-31T11:13:37;3.00;;;2.72;;
24163;SDS011;12319;49.204;8.116;2022-10-31T11:16:02;3.45;;;3.15;;
24163;SDS011;12319;49.204;8.116;2022-10-31T11:18:34;4.47;;;2.92;;
24163;SDS011;12319;49.204;8.116;2022-10-31T11:21:04;3.33;;;2.63;;
24163;SDS011;12319;49.204;8.116;2022-10-31T11:23:30;6.40;;;3.13;;
24163;SDS011;12319;49.204;8.116;2022-10-31T11:25:58;4.55;;;2.90;;
24163;SDS011;12319;49.204;8.116;2022-10-31T11:28:29;4.13;;;2.90;;
24163;SDS011;12319;49.204;8.116;2022-10-31T11:35:57;4.25;;;2.92;;
24163;SDS011;12319;49.204;8.116;2022-10-31T11:38:33;4.40;;;2.80;;
24163;SDS011;12319;49.204;8.116;2022-10-31T11:41:10;3.80;;;2.97;;
24163;SDS011;12319;49.204;8.116;2022-10-31T11:43:36;4.18;;;3.03;;
24163;SDS011;12319;49.204;8.116;2022-10-31T11:46:10;5.22;;;3.13;;
24163;SDS011;12319;49.204;8.116;2022-10-31T11:48:39;3.85;;;2.88;;
24163;SDS011;12319;49.204;8.116;2022-10-31T11:51:04;4.72;;;3.17;;
24163;SDS011;12319;49.204;8.116;2022-10-31T11:53:31;4.45;;;2.90;;
24163;SDS011;12319;49.204;8.116;2022-10-31T11:58:40;3.65;;;2.85;;
24163;SDS011;12319;49.204;8.116;2022-10-31T12:01:08;3.55;;;2.83;;
24163;SDS011;12319;49.204;8.116;2022-10-31T12:03:51;5.38;;;3.10;;
24163;SDS011;12319;49.204;8.116;2022-10-31T12:06:21;4.15;;;3.15;;
24163;SDS011;12319;49.204;8.116;2022-10-31T12:08:50;2.97;;;2.63;;
24163;SDS011;12319;49.204;8.116;2022-10-31T12:16:59;2.70;;;2.50;;
24163;SDS011;12319;49.204;8.116;2022-10-31T12:44:03;4.57;;;2.83;;
24163;SDS011;12319;49.204;8.116;2022-10-31T12:57:02;3.15;;;2.83;;
24163;SDS011;12319;49.204;8.116;2022-10-31T12:59:33;3.30;;;2.80;;
24163;SDS011;12319;49.204;8.116;2022-10-31T13:04:50;4.90;;;3.20;;
24163;SDS011;12319;49.204;8.116;2022-10-31T13:07:26;3.90;;;2.90;;
24163;SDS011;12319;49.204;8.116;2022-10-31T13:12:37;4.35;;;2.88;;
24163;SDS011;12319;49.204;8.116;2022-10-31T13:17:53;3.50;;;2.88;;
24163;SDS011;12319;49.204;8.116;2022-10-31T13:20:24;4.68;;;3.13;;
24163;SDS011;12319;49.204;8.116;2022-10-31T13:22:53;3.03;;;2.72;;
24163;SDS011;12319;49.204;8.116;2022-10-31T13:25:42;2.65;;;2.45;;
24163;SDS011;12319;49.204;8.116;2022-10-31T13:28:19;4.22;;;3.13;;
24163;SDS011;12319;49.204;8.116;2022-10-31T13:30:53;4.35;;;3.10;;
24163;SDS011;12319;49.204;8.116;2022-10-31T13:33:26;4.78;;;3.60;;
24163;SDS011;12319;49.204;8.116;2022-10-31T13:36:28;3.75;;;2.95;;
24163;SDS011;12319;49.204;8.116;2022-10-31T13:39:39;5.47;;;2.67;;
24163;SDS011;12319;49.204;8.116;2022-10-31T13:44:37;3.78;;;3.40;;
24163;SDS011;12319;49.204;8.116;2022-10-31T13:47:03;3.80;;;3.00;;
24163;SDS011;12319;49.204;8.116;2022-10-31T13:50:02;4.88;;;2.90;;
24163;SDS011;12319;49.204;8.116;2022-10-31T13:52:47;4.15;;;2.90;;
24163;SDS011;12319;49.204;8.116;2022-10-31T13:58:02;4.53;;;3.13;;
24163;SDS011;12319;49.204;8.116;2022-10-31T14:00:30;3.65;;;3.03;;
24163;SDS011;12319;49.204;8.116;2022-10-31T14:02:59;4.82;;;3.20;;
24163;SDS011;12319;49.204;8.116;2022-10-31T14:05:27;6.85;;;3.20;;
24163;SDS011;12319;49.204;8.116;2022-10-31T14:07:56;3.10;;;2.80;;
24163;SDS011;12319;49.204;8.116;2022-10-31T14:10:38;6.03;;;3.17;;
24163;SDS011;12319;49.204;8.116;2022-10-31T14:13:19;4.97;;;3.17;;
24163;SDS011;12319;49.204;8.116;2022-10-31T14:18:27;4.03;;;2.78;;
24163;SDS011;12319;49.204;8.116;2022-10-31T14:20:56;3.33;;;3.03;;
24163;SDS011;12319;49.204;8.116;2022-10-31T14:26:17;4.10;;;2.92;;
24163;SDS011;12319;49.204;8.116;2022-10-31T14:28:44;5.20;;;3.05;;
24163;SDS011;12319;49.204;8.116;2022-10-31T14:31:24;3.35;;;2.70;;
24163;SDS011;12319;49.204;8.116;2022-10-31T14:34:24;5.25;;;3.00;;
24163;SDS011;12319;49.204;8.116;2022-10-31T14:42:38;4.40;;;3.10;;
24163;SDS011;12319;49.204;8.116;2022-10-31T14:50:57;3.15;;;2.72;;
24163;SDS011;12319;49.204;8.116;2022-10-31T14:56:10;3.35;;;3.00;;
24163;SDS011;12319;49.204;8.116;2022-10-31T14:58:43;4.43;;;2.95;;
24163;SDS011;12319;49.204;8.116;2022-10-31T15:03:53;5.90;;;3.38;;
24163;SDS011;12319;49.204;8.116;2022-10-31T15:06:23;7.90;;;3.15;;
24163;SDS011;12319;49.204;8.116;2022-10-31T15:08:51;3.90;;;3.47;;
24163;SDS011;12319;49.204;8.116;2022-10-31T15:11:22;4.93;;;3.30;;
24163;SDS011;12319;49.204;8.116;2022-10-31T15:13:56;4.07;;;3.35;;
24163;SDS011;12319;49.204;8.116;2022-10-31T15:16:23;4.15;;;3.60;;
24163;SDS011;12319;49.204;8.116;2022-10-31T15:18:56;4.22;;;3.50;;
24163;SDS011;12319;49.204;8.116;2022-10-31T15:21:26;4.88;;;3.13;;
24163;SDS011;12319;49.204;8.116;2022-10-31T15:23:56;3.70;;;3.13;;
24163;SDS011;12319;49.204;8.116;2022-10-31T15:26:25;4.90;;;3.58;;
24163;SDS011;12319;49.204;8.116;2022-10-31T15:29:04;5.22;;;3.63;;
24163;SDS011;12319;49.204;8.116;2022-10-31T15:31:30;5.72;;;3.42;;
24163;SDS011;12319;49.204;8.116;2022-10-31T15:33:58;6.00;;;3.53;;
24163;SDS011;12319;49.204;8.116;2022-10-31T15:36:30;3.53;;;2.97;;
24163;SDS011;12319;49.204;8.116;2022-10-31T15:38:56;6.10;;;3.65;;
24163;SDS011;12319;49.204;8.116;2022-10-31T15:42:13;7.38;;;3.40;;
24163;SDS011;12319;49.204;8.116;2022-10-31T15:44:12;3.83;;;3.22;;
24163;SDS011;12319;49.204;8.116;2022-10-31T15:46:51;4.78;;;2.97;;
24163;SDS011;12319;49.204;8.116;2022-10-31T15:49:32;4.80;;;2.85;;
24163;SDS011;12319;49.204;8.116;2022-10-31T15:52:03;4.70;;;3.00;;
24163;SDS011;12319;49.204;8.116;2022-10-31T15:54:40;3.78;;;2.75;;
24163;SDS011;12319;49.204;8.116;2022-10-31T15:57:13;6.47;;;3.15;;
24163;SDS011;12319;49.204;8.116;2022-10-31T15:59:38;4.93;;;2.85;;
24163;SDS011;12319;49.204;8.116;2022-10-31T16:02:09;4.43;;;3.10;;
24163;SDS011;12319;49.204;8.116;2022-10-31T16:04:36;6.68;;;3.63;;
24163;SDS011;12319;49.204;8.116;2022-10-31T16:07:11;5.07;;;3.45;;
24163;SDS011;12319;49.204;8.116;2022-10-31T16:09:48;4.10;;;3.33;;
24163;SDS011;12319;49.204;8.116;2022-10-31T16:12:22;4.93;;;3.63;;
24163;SDS011;12319;49.204;8.116;2022-10-31T16:14:53;3.97;;;3.30;;
24163;SDS011;12319;49.204;8.116;2022-10-31T16:17:20;4.40;;;3.50;;
24163;SDS011;12319;49.204;8.116;2022-10-31T16:19:57;4.55;;;3.45;;
24163;SDS011;12319;49.204;8.116;2022-10-31T16:22:32;5.70;;;3.40;;
24163;SDS011;12319;49.204;8.116;2022-10-31T16:25:45;4.05;;;3.03;;
24163;SDS011;12319;49.204;8.116;2022-10-31T16:27:51;5.38;;;3.22;;
24163;SDS011;12319;49.204;8.116;2022-10-31T16:30:29;6.15;;;3.60;;
24163;SDS011;12319;49.204;8.116;2022-10-31T16:33:28;3.88;;;3.20;;
24163;SDS011;12319;49.204;8.116;2022-10-31T16:36:00;3.30;;;3.00;;
24163;SDS011;12319;49.204;8.116;2022-10-31T16:38:48;6.07;;;3.53;;
24163;SDS011;12319;49.204;8.116;2022-10-31T16:41:14;4.70;;;3.58;;
24163;SDS011;12319;49.204;8.116;2022-10-31T16:43:39;4.63;;;3.35;;
24163;SDS011;12319;49.204;8.116;2022-10-31T16:46:05;5.45;;;3.38;;
24163;SDS011;12319;49.204;8.116;2022-10-31T16:48:30;4.18;;;3.15;;
24163;SDS011;12319;49.204;8.116;2022-10-31T16:50:56;3.92;;;3.42;;
24163;SDS011;12319;49.204;8.116;2022-10-31T16:53:21;4.65;;;3.40;;
24163;SDS011;12319;49.204;8.116;2022-10-31T16:55:51;5.53;;;3.53;;
24163;SDS011;12319;49.204;8.116;2022-10-31T16:58:26;3.72;;;3.13;;
24163;SDS011;12319;49.204;8.116;2022-10-31T17:00:54;5.97;;;3.50;;
24163;SDS011;12319;49.204;8.116;2022-10-31T17:03:23;3.72;;;3.35;;
24163;SDS011;12319;49.204;8.116;2022-10-31T17:05:49;5.35;;;3.40;;
24163;SDS011;12319;49.204;8.116;2022-10-31T17:08:15;4.28;;;3.15;;
24163;SDS011;12319;49.204;8.116;2022-10-31T17:10:41;4.40;;;3.30;;
24163;SDS011;12319;49.204;8.116;2022-10-31T17:13:10;5.22;;;4.30;;
24163;SDS011;12319;49.204;8.116;2022-10-31T17:15:46;6.60;;;4.28;;
24163;SDS011;12319;49.204;8.116;2022-10-31T17:18:14;5.03;;;4.40;;